Chon Buri, Thailand

04:15 AM +07 on November 19, 2017 (GMT +0700)
Bangkok (Suvarnabhumi) | | Change Station

Elev 7 ft 13.37 °N, 100.98 °E | Updated 15 minutes ago

Partly Cloudy
Växlande molnighet
81 °F
Feels Like 87 °F
N
0
Vind Växlande Vind from Nordlig

Idag
High -- | Low -- °F
--% Chance of Precip.
Yesterday
High -- | Low -- °F
Precip. -- tum
Lufttryck 29.77 tum
Sikt 3.1 miles
Molnigt Few 2000 ft
Värmeindex 87 °F
Daggpunkt 77 °F
Luftfuktighet 89%
Rainfall 0.00 tum
Snow Depth Not available.
6:16 AM 5:45 PM
Nymåne, 0% visible
METAR VTBS 182100Z 00000KT 5000 BR FEW020 27/25 Q1008 NOSIG
Lufttryck 29.77 tum
Sikt 3.1 miles
Molnigt Few 2000 ft
Värmeindex 87 °F
Daggpunkt 77 °F
Luftfuktighet 89%
Rainfall 0.00 tum
Snow Depth Not available.
6:16 AM 5:45 PM
Nymåne, 0% visible
METAR VTBS 182100Z 00000KT 5000 BR FEW020 27/25 Q1008 NOSIG

Get Severe Weather Alerts

Thanks for signing up!

Be on the lookout for a verification email in your inbox.

You'll start receiving the daily forecast at 6 AM.

×

10-Day Weather Forecast

No radar image for this location.
×

Almanac

Astronomi

Nov. 19, 2017 Rise Set
Actual Time
Civil Twilight
Nautical Twilight
Astronomical Twilight
Månen
Length Of Visible Light
Dagens längd
Tomorrow will be .
, % of the Moon is Illuminated

Today's Extremes

Country Highs Country Lows

Community

WunderPhotos

Category 6

Welcome to Category 6. This is the collective home for Weather Underground's featured writeups by Dr. Jeff Masters (right), Bob Henson (left), Chris Burt, and other regular contributors.

Nearby

Air Quality

  Air Quality AQ Index Pollutant
Not available.

Snödjup

Station Depth Elevation

Earthquake Activity

Stad Distance Mag. Time & Date
Minimum magnitude displayed is 2.5.

Coastal Water Temperatures

Plats Temperatur

Stations

Nearby Weather Stations

Station Location Temp Vindavkylning Daggpunkt Luftfuktighet Vind Precip. Elev Uppdaterad Type